sensor_id;sensor_type;location;lat;lon;timestamp;P1;durP1;ratioP1;P2;durP2;ratioP2
5391;SDS011;2719;53.624;9.786;2023-03-01T00:01:08;2.40;;;1.33;;
5391;SDS011;2719;53.624;9.786;2023-03-01T00:03:36;4.97;;;1.73;;
5391;SDS011;2719;53.624;9.786;2023-03-01T00:06:03;18.77;;;2.03;;
5391;SDS011;2719;53.624;9.786;2023-03-01T00:08:31;2.40;;;1.17;;
5391;SDS011;2719;53.624;9.786;2023-03-01T00:11:04;4.90;;;1.70;;
5391;SDS011;2719;53.624;9.786;2023-03-01T00:13:32;3.67;;;1.47;;
5391;SDS011;2719;53.624;9.786;2023-03-01T00:16:01;6.83;;;2.40;;
5391;SDS011;2719;53.624;9.786;2023-03-01T00:18:28;1.80;;;1.40;;
5391;SDS011;2719;53.624;9.786;2023-03-01T00:20:55;2.70;;;1.70;;
5391;SDS011;2719;53.624;9.786;2023-03-01T00:23:22;2.67;;;1.60;;
5391;SDS011;2719;53.624;9.786;2023-03-01T00:25:49;1.83;;;1.20;;
5391;SDS011;2719;53.624;9.786;2023-03-01T00:28:18;4.43;;;1.83;;
5391;SDS011;2719;53.624;9.786;2023-03-01T00:30:45;3.63;;;1.63;;
5391;SDS011;2719;53.624;9.786;2023-03-01T00:33:12;2.00;;;1.33;;
5391;SDS011;2719;53.624;9.786;2023-03-01T00:35:39;19.77;;;1.60;;
5391;SDS011;2719;53.624;9.786;2023-03-01T00:38:05;4.43;;;1.80;;
5391;SDS011;2719;53.624;9.786;2023-03-01T00:40:33;3.33;;;1.30;;
5391;SDS011;2719;53.624;9.786;2023-03-01T00:43:01;6.37;;;1.70;;
5391;SDS011;2719;53.624;9.786;2023-03-01T00:45:30;5.43;;;2.67;;
5391;SDS011;2719;53.624;9.786;2023-03-01T00:47:57;4.90;;;1.40;;
5391;SDS011;2719;53.624;9.786;2023-03-01T00:50:24;3.93;;;1.60;;
5391;SDS011;2719;53.624;9.786;2023-03-01T00:52:52;2.70;;;1.23;;
5391;SDS011;2719;53.624;9.786;2023-03-01T00:55:19;2.23;;;1.80;;
5391;SDS011;2719;53.624;9.786;2023-03-01T00:57:46;4.67;;;1.40;;
5391;SDS011;2719;53.624;9.786;2023-03-01T01:00:13;4.70;;;1.77;;
5391;SDS011;2719;53.624;9.786;2023-03-01T01:02:41;3.00;;;1.60;;
5391;SDS011;2719;53.624;9.786;2023-03-01T01:05:08;2.40;;;1.23;;
5391;SDS011;2719;53.624;9.786;2023-03-01T01:07:35;2.47;;;1.37;;
5391;SDS011;2719;53.624;9.786;2023-03-01T01:10:02;3.77;;;1.50;;
5391;SDS011;2719;53.624;9.786;2023-03-01T01:12:29;10.73;;;1.20;;
5391;SDS011;2719;53.624;9.786;2023-03-01T01:14:55;3.80;;;2.20;;
5391;SDS011;2719;53.624;9.786;2023-03-01T01:17:22;3.20;;;1.90;;
5391;SDS011;2719;53.624;9.786;2023-03-01T01:19:50;2.50;;;1.77;;
5391;SDS011;2719;53.624;9.786;2023-03-01T01:22:17;4.10;;;1.67;;
5391;SDS011;2719;53.624;9.786;2023-03-01T01:24:44;4.90;;;2.20;;
5391;SDS011;2719;53.624;9.786;2023-03-01T01:27:10;4.67;;;2.00;;
5391;SDS011;2719;53.624;9.786;2023-03-01T01:29:37;10.33;;;2.20;;
5391;SDS011;2719;53.624;9.786;2023-03-01T01:32:04;5.70;;;2.13;;
5391;SDS011;2719;53.624;9.786;2023-03-01T01:34:31;7.60;;;1.77;;
5391;SDS011;2719;53.624;9.786;2023-03-01T01:36:59;3.87;;;2.90;;
5391;SDS011;2719;53.624;9.786;2023-03-01T01:39:27;5.27;;;2.90;;
5391;SDS011;2719;53.624;9.786;2023-03-01T01:41:54;3.70;;;2.03;;
5391;SDS011;2719;53.624;9.786;2023-03-01T01:44:21;4.30;;;1.40;;
5391;SDS011;2719;53.624;9.786;2023-03-01T01:46:50;5.70;;;2.13;;
5391;SDS011;2719;53.624;9.786;2023-03-01T01:49:23;3.23;;;2.53;;
5391;SDS011;2719;53.624;9.786;2023-03-01T01:51:56;4.70;;;1.70;;
5391;SDS011;2719;53.624;9.786;2023-03-01T01:54:32;2.40;;;1.80;;
5391;SDS011;2719;53.624;9.786;2023-03-01T01:57:06;3.30;;;1.60;;
5391;SDS011;2719;53.624;9.786;2023-03-01T01:59:36;2.43;;;1.80;;
5391;SDS011;2719;53.624;9.786;2023-03-01T02:02:04;3.97;;;2.17;;
5391;SDS011;2719;53.624;9.786;2023-03-01T02:04:31;5.17;;;1.20;;
5391;SDS011;2719;53.624;9.786;2023-03-01T02:07:01;2.83;;;1.40;;
5391;SDS011;2719;53.624;9.786;2023-03-01T02:09:33;2.83;;;1.63;;
5391;SDS011;2719;53.624;9.786;2023-03-01T02:12:02;3.50;;;1.33;;
5391;SDS011;2719;53.624;9.786;2023-03-01T02:14:29;3.33;;;1.30;;
5391;SDS011;2719;53.624;9.786;2023-03-01T02:16:56;3.10;;;1.57;;
5391;SDS011;2719;53.624;9.786;2023-03-01T02:19:27;2.83;;;1.53;;
5391;SDS011;2719;53.624;9.786;2023-03-01T02:22:06;3.93;;;1.40;;
5391;SDS011;2719;53.624;9.786;2023-03-01T02:24:40;4.30;;;1.90;;
5391;SDS011;2719;53.624;9.786;2023-03-01T02:27:16;4.17;;;1.53;;
5391;SDS011;2719;53.624;9.786;2023-03-01T02:29:48;5.50;;;1.40;;
5391;SDS011;2719;53.624;9.786;2023-03-01T02:32:15;3.83;;;1.40;;
5391;SDS011;2719;53.624;9.786;2023-03-01T02:34:50;1.30;;;1.20;;
5391;SDS011;2719;53.624;9.786;2023-03-01T02:37:17;6.90;;;2.00;;
5391;SDS011;2719;53.624;9.786;2023-03-01T02:39:51;3.23;;;1.50;;
5391;SDS011;2719;53.624;9.786;2023-03-01T02:42:23;1.80;;;1.13;;
5391;SDS011;2719;53.624;9.786;2023-03-01T02:44:55;3.13;;;1.33;;
5391;SDS011;2719;53.624;9.786;2023-03-01T02:47:22;4.87;;;1.90;;
5391;SDS011;2719;53.624;9.786;2023-03-01T02:49:49;3.10;;;1.53;;
5391;SDS011;2719;53.624;9.786;2023-03-01T02:55:07;2.57;;;1.83;;
5391;SDS011;2719;53.624;9.786;2023-03-01T02:57:37;4.90;;;2.10;;
5391;SDS011;2719;53.624;9.786;2023-03-01T03:00:08;4.23;;;1.83;;
5391;SDS011;2719;53.624;9.786;2023-03-01T03:02:44;2.73;;;1.57;;
5391;SDS011;2719;53.624;9.786;2023-03-01T03:05:12;3.97;;;2.07;;
5391;SDS011;2719;53.624;9.786;2023-03-01T03:07:41;5.23;;;1.67;;
5391;SDS011;2719;53.624;9.786;2023-03-01T03:10:10;6.60;;;2.27;;
5391;SDS011;2719;53.624;9.786;2023-03-01T03:12:39;1.30;;;1.20;;
5391;SDS011;2719;53.624;9.786;2023-03-01T03:15:08;2.17;;;1.20;;
5391;SDS011;2719;53.624;9.786;2023-03-01T03:17:37;5.00;;;1.73;;
5391;SDS011;2719;53.624;9.786;2023-03-01T03:20:06;2.60;;;1.10;;
5391;SDS011;2719;53.624;9.786;2023-03-01T03:22:36;4.60;;;2.17;;
5391;SDS011;2719;53.624;9.786;2023-03-01T03:25:03;4.93;;;1.60;;
5391;SDS011;2719;53.624;9.786;2023-03-01T03:27:30;3.40;;;1.37;;
5391;SDS011;2719;53.624;9.786;2023-03-01T03:29:57;2.10;;;1.27;;
5391;SDS011;2719;53.624;9.786;2023-03-01T03:32:25;5.63;;;1.67;;
5391;SDS011;2719;53.624;9.786;2023-03-01T03:34:52;6.00;;;2.03;;
5391;SDS011;2719;53.624;9.786;2023-03-01T03:37:18;2.97;;;1.90;;
5391;SDS011;2719;53.624;9.786;2023-03-01T03:39:59;4.20;;;1.50;;
5391;SDS011;2719;53.624;9.786;2023-03-01T03:42:26;3.47;;;2.00;;
5391;SDS011;2719;53.624;9.786;2023-03-01T03:44:52;2.63;;;1.73;;
5391;SDS011;2719;53.624;9.786;2023-03-01T03:47:19;4.27;;;1.90;;
5391;SDS011;2719;53.624;9.786;2023-03-01T03:49:47;4.10;;;2.07;;
5391;SDS011;2719;53.624;9.786;2023-03-01T03:52:13;6.53;;;1.23;;
5391;SDS011;2719;53.624;9.786;2023-03-01T03:54:40;4.67;;;1.90;;
5391;SDS011;2719;53.624;9.786;2023-03-01T03:57:07;5.87;;;1.87;;
5391;SDS011;2719;53.624;9.786;2023-03-01T03:59:33;3.57;;;1.73;;
5391;SDS011;2719;53.624;9.786;2023-03-01T04:02:00;4.33;;;2.20;;
5391;SDS011;2719;53.624;9.786;2023-03-01T04:04:27;3.10;;;1.63;;
5391;SDS011;2719;53.624;9.786;2023-03-01T04:06:55;11.63;;;1.60;;
5391;SDS011;2719;53.624;9.786;2023-03-01T04:09:21;5.00;;;1.93;;
5391;SDS011;2719;53.624;9.786;2023-03-01T04:11:48;2.80;;;2.20;;
5391;SDS011;2719;53.624;9.786;2023-03-01T04:14:14;4.27;;;1.73;;
5391;SDS011;2719;53.624;9.786;2023-03-01T04:16:41;3.57;;;2.07;;
5391;SDS011;2719;53.624;9.786;2023-03-01T04:19:07;3.17;;;1.73;;
5391;SDS011;2719;53.624;9.786;2023-03-01T04:21:34;4.60;;;1.80;;
5391;SDS011;2719;53.624;9.786;2023-03-01T04:24:03;2.50;;;1.83;;
5391;SDS011;2719;53.624;9.786;2023-03-01T04:26:31;11.90;;;2.50;;
5391;SDS011;2719;53.624;9.786;2023-03-01T04:28:58;3.70;;;2.10;;
5391;SDS011;2719;53.624;9.786;2023-03-01T04:31:24;5.37;;;1.63;;
5391;SDS011;2719;53.624;9.786;2023-03-01T04:33:52;6.70;;;2.50;;
5391;SDS011;2719;53.624;9.786;2023-03-01T04:36:20;9.30;;;2.30;;
5391;SDS011;2719;53.624;9.786;2023-03-01T04:38:49;3.30;;;2.20;;
5391;SDS011;2719;53.624;9.786;2023-03-01T04:41:19;3.17;;;1.93;;
5391;SDS011;2719;53.624;9.786;2023-03-01T04:43:48;8.07;;;2.13;;
5391;SDS011;2719;53.624;9.786;2023-03-01T04:46:15;2.33;;;1.67;;
5391;SDS011;2719;53.624;9.786;2023-03-01T04:48:44;2.20;;;1.70;;
5391;SDS011;2719;53.624;9.786;2023-03-01T04:51:12;1.70;;;1.53;;
5391;SDS011;2719;53.624;9.786;2023-03-01T04:53:40;3.37;;;2.00;;
5391;SDS011;2719;53.624;9.786;2023-03-01T04:56:07;10.37;;;3.10;;
5391;SDS011;2719;53.624;9.786;2023-03-01T04:58:36;4.03;;;2.53;;
5391;SDS011;2719;53.624;9.786;2023-03-01T05:01:07;9.33;;;2.00;;
5391;SDS011;2719;53.624;9.786;2023-03-01T05:03:40;5.80;;;1.60;;
5391;SDS011;2719;53.624;9.786;2023-03-01T05:06:07;3.70;;;2.10;;
5391;SDS011;2719;53.624;9.786;2023-03-01T05:08:35;13.13;;;2.30;;
5391;SDS011;2719;53.624;9.786;2023-03-01T05:11:03;2.93;;;1.70;;
5391;SDS011;2719;53.624;9.786;2023-03-01T05:13:29;2.20;;;1.50;;
5391;SDS011;2719;53.624;9.786;2023-03-01T05:15:58;1.80;;;1.70;;
5391;SDS011;2719;53.624;9.786;2023-03-01T05:18:28;7.07;;;1.93;;
5391;SDS011;2719;53.624;9.786;2023-03-01T05:20:56;1.70;;;1.40;;
5391;SDS011;2719;53.624;9.786;2023-03-01T05:23:29;4.13;;;1.80;;
5391;SDS011;2719;53.624;9.786;2023-03-01T05:25:57;4.70;;;2.03;;
5391;SDS011;2719;53.624;9.786;2023-03-01T05:28:24;4.77;;;1.67;;
5391;SDS011;2719;53.624;9.786;2023-03-01T05:30:53;8.13;;;2.37;;
5391;SDS011;2719;53.624;9.786;2023-03-01T05:33:21;4.30;;;1.63;;
5391;SDS011;2719;53.624;9.786;2023-03-01T05:35:49;6.03;;;1.90;;
5391;SDS011;2719;53.624;9.786;2023-03-01T05:38:18;5.13;;;2.30;;
5391;SDS011;2719;53.624;9.786;2023-03-01T05:40:45;5.60;;;3.07;;
5391;SDS011;2719;53.624;9.786;2023-03-01T05:43:14;5.70;;;2.20;;
5391;SDS011;2719;53.624;9.786;2023-03-01T05:45:43;2.50;;;1.80;;
5391;SDS011;2719;53.624;9.786;2023-03-01T05:48:10;6.03;;;2.40;;
5391;SDS011;2719;53.624;9.786;2023-03-01T05:50:39;3.60;;;1.97;;
5391;SDS011;2719;53.624;9.786;2023-03-01T05:53:08;1.60;;;1.33;;
5391;SDS011;2719;53.624;9.786;2023-03-01T05:55:37;5.70;;;2.40;;
5391;SDS011;2719;53.624;9.786;2023-03-01T05:58:04;3.77;;;1.97;;
5391;SDS011;2719;53.624;9.786;2023-03-01T06:00:32;3.90;;;2.13;;
5391;SDS011;2719;53.624;9.786;2023-03-01T06:02:59;4.87;;;2.03;;
5391;SDS011;2719;53.624;9.786;2023-03-01T06:05:27;7.20;;;2.50;;
5391;SDS011;2719;53.624;9.786;2023-03-01T06:07:57;6.23;;;2.90;;
5391;SDS011;2719;53.624;9.786;2023-03-01T06:10:25;4.97;;;2.07;;
5391;SDS011;2719;53.624;9.786;2023-03-01T06:12:52;8.03;;;2.80;;
5391;SDS011;2719;53.624;9.786;2023-03-01T06:15:19;10.93;;;3.00;;
5391;SDS011;2719;53.624;9.786;2023-03-01T06:17:47;5.60;;;3.27;;
5391;SDS011;2719;53.624;9.786;2023-03-01T06:20:15;7.03;;;2.30;;
5391;SDS011;2719;53.624;9.786;2023-03-01T06:22:43;6.20;;;2.60;;
5391;SDS011;2719;53.624;9.786;2023-03-01T06:25:13;3.90;;;2.27;;
5391;SDS011;2719;53.624;9.786;2023-03-01T06:27:41;4.60;;;2.10;;
5391;SDS011;2719;53.624;9.786;2023-03-01T06:30:08;4.50;;;1.57;;
5391;SDS011;2719;53.624;9.786;2023-03-01T06:32:37;4.53;;;2.47;;
5391;SDS011;2719;53.624;9.786;2023-03-01T06:35:07;7.00;;;2.37;;
5391;SDS011;2719;53.624;9.786;2023-03-01T06:37:35;5.57;;;2.47;;
5391;SDS011;2719;53.624;9.786;2023-03-01T06:40:02;4.90;;;2.30;;
5391;SDS011;2719;53.624;9.786;2023-03-01T06:42:34;6.10;;;2.10;;
5391;SDS011;2719;53.624;9.786;2023-03-01T06:45:01;4.80;;;2.10;;
5391;SDS011;2719;53.624;9.786;2023-03-01T06:47:28;5.13;;;3.03;;
5391;SDS011;2719;53.624;9.786;2023-03-01T06:49:55;3.73;;;2.63;;
5391;SDS011;2719;53.624;9.786;2023-03-01T06:52:21;6.97;;;2.47;;
5391;SDS011;2719;53.624;9.786;2023-03-01T06:54:48;3.60;;;2.03;;
5391;SDS011;2719;53.624;9.786;2023-03-01T06:57:15;6.50;;;2.00;;
5391;SDS011;2719;53.624;9.786;2023-03-01T06:59:43;4.07;;;2.17;;
5391;SDS011;2719;53.624;9.786;2023-03-01T07:02:10;10.43;;;2.73;;
5391;SDS011;2719;53.624;9.786;2023-03-01T07:04:37;2.30;;;1.60;;
5391;SDS011;2719;53.624;9.786;2023-03-01T07:07:04;5.53;;;1.93;;
5391;SDS011;2719;53.624;9.786;2023-03-01T07:09:31;6.20;;;2.77;;
5391;SDS011;2719;53.624;9.786;2023-03-01T07:11:57;5.47;;;2.57;;
5391;SDS011;2719;53.624;9.786;2023-03-01T07:14:24;7.53;;;2.63;;
5391;SDS011;2719;53.624;9.786;2023-03-01T07:16:52;3.43;;;1.80;;
5391;SDS011;2719;53.624;9.786;2023-03-01T07:19:19;2.97;;;2.03;;
5391;SDS011;2719;53.624;9.786;2023-03-01T07:21:46;3.63;;;1.90;;
5391;SDS011;2719;53.624;9.786;2023-03-01T07:24:13;4.13;;;2.37;;
5391;SDS011;2719;53.624;9.786;2023-03-01T07:26:40;4.40;;;2.30;;
5391;SDS011;2719;53.624;9.786;2023-03-01T07:29:07;9.00;;;2.93;;
5391;SDS011;2719;53.624;9.786;2023-03-01T07:31:36;4.37;;;2.10;;
5391;SDS011;2719;53.624;9.786;2023-03-01T07:34:04;3.80;;;2.00;;
5391;SDS011;2719;53.624;9.786;2023-03-01T07:36:31;4.10;;;2.23;;
5391;SDS011;2719;53.624;9.786;2023-03-01T07:38:57;3.00;;;1.87;;
5391;SDS011;2719;53.624;9.786;2023-03-01T07:41:27;7.00;;;2.80;;
5391;SDS011;2719;53.624;9.786;2023-03-01T07:43:53;6.63;;;3.03;;
5391;SDS011;2719;53.624;9.786;2023-03-01T07:46:20;4.73;;;3.13;;
5391;SDS011;2719;53.624;9.786;2023-03-01T07:48:47;9.40;;;3.57;;
5391;SDS011;2719;53.624;9.786;2023-03-01T07:51:15;7.00;;;2.80;;
5391;SDS011;2719;53.624;9.786;2023-03-01T07:53:41;6.13;;;2.97;;
5391;SDS011;2719;53.624;9.786;2023-03-01T07:56:08;8.17;;;3.43;;
5391;SDS011;2719;53.624;9.786;2023-03-01T07:58:37;7.43;;;2.90;;
5391;SDS011;2719;53.624;9.786;2023-03-01T08:01:06;7.53;;;3.87;;
5391;SDS011;2719;53.624;9.786;2023-03-01T08:03:33;7.33;;;3.73;;
5391;SDS011;2719;53.624;9.786;2023-03-01T08:06:00;6.43;;;3.70;;
5391;SDS011;2719;53.624;9.786;2023-03-01T08:08:29;7.17;;;4.47;;
5391;SDS011;2719;53.624;9.786;2023-03-01T08:10:56;7.27;;;3.83;;
5391;SDS011;2719;53.624;9.786;2023-03-01T08:13:23;7.23;;;4.00;;
5391;SDS011;2719;53.624;9.786;2023-03-01T08:15:50;11.20;;;4.90;;
5391;SDS011;2719;53.624;9.786;2023-03-01T08:18:18;7.67;;;3.90;;
5391;SDS011;2719;53.624;9.786;2023-03-01T08:20:46;9.87;;;4.00;;
5391;SDS011;2719;53.624;9.786;2023-03-01T08:23:13;11.30;;;4.77;;
5391;SDS011;2719;53.624;9.786;2023-03-01T08:25:41;7.53;;;4.63;;
5391;SDS011;2719;53.624;9.786;2023-03-01T08:28:08;14.13;;;5.50;;
5391;SDS011;2719;53.624;9.786;2023-03-01T08:30:35;8.90;;;5.97;;
5391;SDS011;2719;53.624;9.786;2023-03-01T08:33:01;7.80;;;4.37;;
5391;SDS011;2719;53.624;9.786;2023-03-01T08:35:28;14.17;;;6.10;;
5391;SDS011;2719;53.624;9.786;2023-03-01T08:37:54;8.43;;;5.10;;
5391;SDS011;2719;53.624;9.786;2023-03-01T08:40:21;10.30;;;5.97;;
5391;SDS011;2719;53.624;9.786;2023-03-01T08:42:49;11.77;;;4.97;;
5391;SDS011;2719;53.624;9.786;2023-03-01T08:45:16;8.47;;;4.70;;
5391;SDS011;2719;53.624;9.786;2023-03-01T08:47:43;17.73;;;5.57;;
5391;SDS011;2719;53.624;9.786;2023-03-01T08:50:11;10.20;;;5.83;;
5391;SDS011;2719;53.624;9.786;2023-03-01T08:52:37;8.60;;;4.53;;
5391;SDS011;2719;53.624;9.786;2023-03-01T08:55:04;15.07;;;6.37;;
5391;SDS011;2719;53.624;9.786;2023-03-01T08:57:32;14.27;;;5.10;;
5391;SDS011;2719;53.624;9.786;2023-03-01T09:00:00;14.00;;;6.37;;
5391;SDS011;2719;53.624;9.786;2023-03-01T09:02:28;17.63;;;5.97;;
5391;SDS011;2719;53.624;9.786;2023-03-01T09:04:54;8.83;;;6.07;;
5391;SDS011;2719;53.624;9.786;2023-03-01T09:07:21;12.83;;;6.50;;
5391;SDS011;2719;53.624;9.786;2023-03-01T09:09:53;12.83;;;5.00;;
5391;SDS011;2719;53.624;9.786;2023-03-01T09:12:20;11.60;;;6.33;;
5391;SDS011;2719;53.624;9.786;2023-03-01T09:14:47;11.03;;;5.27;;
5391;SDS011;2719;53.624;9.786;2023-03-01T09:17:15;13.27;;;5.73;;
5391;SDS011;2719;53.624;9.786;2023-03-01T09:19:41;12.73;;;6.20;;
5391;SDS011;2719;53.624;9.786;2023-03-01T09:22:08;20.53;;;4.63;;
5391;SDS011;2719;53.624;9.786;2023-03-01T09:24:35;11.67;;;6.03;;
5391;SDS011;2719;53.624;9.786;2023-03-01T09:27:01;12.80;;;6.30;;
5391;SDS011;2719;53.624;9.786;2023-03-01T09:29:28;8.70;;;4.67;;
5391;SDS011;2719;53.624;9.786;2023-03-01T09:31:55;15.03;;;5.77;;
5391;SDS011;2719;53.624;9.786;2023-03-01T09:34:23;17.53;;;4.60;;
5391;SDS011;2719;53.624;9.786;2023-03-01T09:36:50;7.13;;;4.10;;
5391;SDS011;2719;53.624;9.786;2023-03-01T09:39:17;10.07;;;4.50;;
5391;SDS011;2719;53.624;9.786;2023-03-01T09:41:46;8.10;;;3.87;;
5391;SDS011;2719;53.624;9.786;2023-03-01T09:44:18;7.37;;;3.63;;
5391;SDS011;2719;53.624;9.786;2023-03-01T09:46:51;7.93;;;4.20;;
5391;SDS011;2719;53.624;9.786;2023-03-01T09:49:19;7.63;;;3.70;;
5391;SDS011;2719;53.624;9.786;2023-03-01T09:51:53;6.90;;;3.20;;
5391;SDS011;2719;53.624;9.786;2023-03-01T09:54:22;6.30;;;3.03;;
5391;SDS011;2719;53.624;9.786;2023-03-01T09:56:53;6.13;;;2.93;;
5391;SDS011;2719;53.624;9.786;2023-03-01T09:59:32;10.50;;;4.53;;
5391;SDS011;2719;53.624;9.786;2023-03-01T10:02:14;6.23;;;3.93;;
5391;SDS011;2719;53.624;9.786;2023-03-01T10:04:49;8.60;;;4.90;;
5391;SDS011;2719;53.624;9.786;2023-03-01T10:07:25;6.03;;;3.70;;
5391;SDS011;2719;53.624;9.786;2023-03-01T10:09:58;9.00;;;4.07;;
5391;SDS011;2719;53.624;9.786;2023-03-01T10:12:27;10.20;;;4.50;;
5391;SDS011;2719;53.624;9.786;2023-03-01T10:15:04;9.77;;;4.20;;
5391;SDS011;2719;53.624;9.786;2023-03-01T10:17:36;8.97;;;4.40;;
5391;SDS011;2719;53.624;9.786;2023-03-01T10:20:10;10.03;;;4.00;;
5391;SDS011;2719;53.624;9.786;2023-03-01T10:22:44;8.17;;;4.10;;
5391;SDS011;2719;53.624;9.786;2023-03-01T10:25:15;9.70;;;4.60;;
5391;SDS011;2719;53.624;9.786;2023-03-01T10:27:51;9.23;;;4.90;;
5391;SDS011;2719;53.624;9.786;2023-03-01T10:30:19;8.80;;;4.17;;
5391;SDS011;2719;53.624;9.786;2023-03-01T10:32:48;6.77;;;4.10;;
5391;SDS011;2719;53.624;9.786;2023-03-01T10:35:18;10.63;;;4.60;;
5391;SDS011;2719;53.624;9.786;2023-03-01T10:37:58;13.30;;;5.63;;
5391;SDS011;2719;53.624;9.786;2023-03-01T10:40:30;11.43;;;5.70;;
5391;SDS011;2719;53.624;9.786;2023-03-01T10:42:57;16.37;;;5.67;;
5391;SDS011;2719;53.624;9.786;2023-03-01T10:45:31;11.87;;;5.50;;
5391;SDS011;2719;53.624;9.786;2023-03-01T10:48:03;7.70;;;4.00;;
5391;SDS011;2719;53.624;9.786;2023-03-01T10:50:31;16.17;;;4.13;;
5391;SDS011;2719;53.624;9.786;2023-03-01T10:53:00;7.83;;;3.90;;
5391;SDS011;2719;53.624;9.786;2023-03-01T10:55:30;11.93;;;4.50;;
5391;SDS011;2719;53.624;9.786;2023-03-01T10:58:06;11.90;;;5.70;;
5391;SDS011;2719;53.624;9.786;2023-03-01T11:00:34;9.00;;;4.30;;
5391;SDS011;2719;53.624;9.786;2023-03-01T11:03:13;12.97;;;4.93;;
5391;SDS011;2719;53.624;9.786;2023-03-01T11:05:53;11.57;;;5.37;;
5391;SDS011;2719;53.624;9.786;2023-03-01T11:11:20;11.07;;;4.50;;
5391;SDS011;2719;53.624;9.786;2023-03-01T11:13:51;10.87;;;5.07;;
5391;SDS011;2719;53.624;9.786;2023-03-01T11:16:23;19.23;;;6.27;;
5391;SDS011;2719;53.624;9.786;2023-03-01T11:18:56;11.20;;;4.23;;
5391;SDS011;2719;53.624;9.786;2023-03-01T11:21:30;8.40;;;4.60;;
5391;SDS011;2719;53.624;9.786;2023-03-01T11:24:01;6.93;;;3.37;;
5391;SDS011;2719;53.624;9.786;2023-03-01T11:26:30;15.30;;;5.40;;
5391;SDS011;2719;53.624;9.786;2023-03-01T11:29:03;12.90;;;4.33;;
5391;SDS011;2719;53.624;9.786;2023-03-01T11:31:36;7.50;;;3.60;;
5391;SDS011;2719;53.624;9.786;2023-03-01T11:34:05;19.33;;;4.90;;
5391;SDS011;2719;53.624;9.786;2023-03-01T11:36:39;8.57;;;3.77;;
5391;SDS011;2719;53.624;9.786;2023-03-01T11:39:15;11.60;;;5.53;;
5391;SDS011;2719;53.624;9.786;2023-03-01T11:41:50;10.60;;;4.70;;
5391;SDS011;2719;53.624;9.786;2023-03-01T11:44:24;9.57;;;3.93;;
5391;SDS011;2719;53.624;9.786;2023-03-01T11:47:03;10.97;;;4.90;;
5391;SDS011;2719;53.624;9.786;2023-03-01T11:49:51;13.67;;;5.10;;
5391;SDS011;2719;53.624;9.786;2023-03-01T11:52:30;10.23;;;5.30;;
5391;SDS011;2719;53.624;9.786;2023-03-01T11:55:14;10.47;;;5.67;;
5391;SDS011;2719;53.624;9.786;2023-03-01T11:57:58;10.80;;;4.83;;
5391;SDS011;2719;53.624;9.786;2023-03-01T12:00:40;12.20;;;5.17;;
5391;SDS011;2719;53.624;9.786;2023-03-01T12:03:23;16.33;;;6.43;;
5391;SDS011;2719;53.624;9.786;2023-03-01T12:06:02;16.43;;;6.73;;
5391;SDS011;2719;53.624;9.786;2023-03-01T12:08:49;17.27;;;6.47;;
5391;SDS011;2719;53.624;9.786;2023-03-01T12:11:27;13.20;;;7.17;;
5391;SDS011;2719;53.624;9.786;2023-03-01T12:14:09;12.80;;;6.67;;
5391;SDS011;2719;53.624;9.786;2023-03-01T12:16:53;14.90;;;6.67;;
5391;SDS011;2719;53.624;9.786;2023-03-01T12:19:33;14.03;;;7.10;;
5391;SDS011;2719;53.624;9.786;2023-03-01T12:22:20;15.47;;;7.90;;
5391;SDS011;2719;53.624;9.786;2023-03-01T12:27:53;13.70;;;6.87;;
5391;SDS011;2719;53.624;9.786;2023-03-01T12:30:46;12.57;;;6.87;;
5391;SDS011;2719;53.624;9.786;2023-03-01T12:33:27;14.63;;;6.30;;
5391;SDS011;2719;53.624;9.786;2023-03-01T12:36:09;13.30;;;7.87;;
5391;SDS011;2719;53.624;9.786;2023-03-01T12:39:03;11.97;;;7.03;;
5391;SDS011;2719;53.624;9.786;2023-03-01T12:41:43;10.87;;;6.20;;
5391;SDS011;2719;53.624;9.786;2023-03-01T12:44:27;10.60;;;5.40;;
5391;SDS011;2719;53.624;9.786;2023-03-01T12:47:09;15.60;;;7.60;;
5391;SDS011;2719;53.624;9.786;2023-03-01T12:49:49;10.67;;;7.03;;
5391;SDS011;2719;53.624;9.786;2023-03-01T12:52:22;12.67;;;6.57;;
5391;SDS011;2719;53.624;9.786;2023-03-01T12:54:52;14.80;;;6.43;;
5391;SDS011;2719;53.624;9.786;2023-03-01T12:57:24;10.93;;;6.43;;
5391;SDS011;2719;53.624;9.786;2023-03-01T13:00:09;17.47;;;8.80;;
5391;SDS011;2719;53.624;9.786;2023-03-01T13:02:47;10.33;;;5.80;;
5391;SDS011;2719;53.624;9.786;2023-03-01T13:05:24;11.10;;;6.43;;
5391;SDS011;2719;53.624;9.786;2023-03-01T13:08:01;10.27;;;6.17;;
5391;SDS011;2719;53.624;9.786;2023-03-01T13:10:39;11.87;;;6.47;;
5391;SDS011;2719;53.624;9.786;2023-03-01T13:13:13;13.93;;;6.93;;
5391;SDS011;2719;53.624;9.786;2023-03-01T13:15:47;12.73;;;6.73;;
5391;SDS011;2719;53.624;9.786;2023-03-01T13:18:29;12.73;;;5.20;;
5391;SDS011;2719;53.624;9.786;2023-03-01T13:20:57;13.00;;;6.47;;
5391;SDS011;2719;53.624;9.786;2023-03-01T13:23:27;12.40;;;6.33;;
5391;SDS011;2719;53.624;9.786;2023-03-01T13:26:00;13.07;;;6.17;;
5391;SDS011;2719;53.624;9.786;2023-03-01T13:28:35;15.97;;;7.10;;
5391;SDS011;2719;53.624;9.786;2023-03-01T13:31:08;16.13;;;9.00;;
5391;SDS011;2719;53.624;9.786;2023-03-01T13:33:43;12.43;;;7.83;;
5391;SDS011;2719;53.624;9.786;2023-03-01T13:36:10;13.87;;;7.07;;
5391;SDS011;2719;53.624;9.786;2023-03-01T13:39:00;11.20;;;5.90;;
5391;SDS011;2719;53.624;9.786;2023-03-01T13:44:20;11.47;;;6.50;;
5391;SDS011;2719;53.624;9.786;2023-03-01T13:46:53;10.37;;;6.13;;
5391;SDS011;2719;53.624;9.786;2023-03-01T13:49:23;9.30;;;5.27;;
5391;SDS011;2719;53.624;9.786;2023-03-01T13:51:53;11.70;;;5.93;;
5391;SDS011;2719;53.624;9.786;2023-03-01T13:54:22;11.70;;;6.67;;
5391;SDS011;2719;53.624;9.786;2023-03-01T13:56:54;11.50;;;5.10;;
5391;SDS011;2719;53.624;9.786;2023-03-01T13:59:22;12.63;;;6.30;;
5391;SDS011;2719;53.624;9.786;2023-03-01T14:01:56;11.60;;;5.30;;
5391;SDS011;2719;53.624;9.786;2023-03-01T14:04:24;8.63;;;4.83;;
5391;SDS011;2719;53.624;9.786;2023-03-01T14:07:08;8.67;;;3.77;;
5391;SDS011;2719;53.624;9.786;2023-03-01T14:09:37;7.77;;;4.20;;
5391;SDS011;2719;53.624;9.786;2023-03-01T14:12:11;6.73;;;4.90;;
5391;SDS011;2719;53.624;9.786;2023-03-01T14:14:52;18.17;;;6.33;;
5391;SDS011;2719;53.624;9.786;2023-03-01T14:17:27;7.10;;;4.13;;
5391;SDS011;2719;53.624;9.786;2023-03-01T14:20:09;4.47;;;2.87;;
5391;SDS011;2719;53.624;9.786;2023-03-01T14:22:40;7.67;;;3.63;;
5391;SDS011;2719;53.624;9.786;2023-03-01T14:25:16;6.00;;;3.70;;
5391;SDS011;2719;53.624;9.786;2023-03-01T14:27:46;6.90;;;3.90;;
5391;SDS011;2719;53.624;9.786;2023-03-01T14:30:19;4.67;;;2.93;;
5391;SDS011;2719;53.624;9.786;2023-03-01T14:32:53;7.13;;;3.80;;
5391;SDS011;2719;53.624;9.786;2023-03-01T14:35:23;7.83;;;3.87;;
5391;SDS011;2719;53.624;9.786;2023-03-01T14:37:51;8.00;;;2.73;;
5391;SDS011;2719;53.624;9.786;2023-03-01T14:40:23;5.93;;;3.90;;
5391;SDS011;2719;53.624;9.786;2023-03-01T14:42:51;6.40;;;2.97;;
5391;SDS011;2719;53.624;9.786;2023-03-01T14:45:19;6.23;;;3.70;;
5391;SDS011;2719;53.624;9.786;2023-03-01T14:47:46;8.07;;;4.33;;
5391;SDS011;2719;53.624;9.786;2023-03-01T14:50:21;9.40;;;3.70;;
5391;SDS011;2719;53.624;9.786;2023-03-01T14:52:50;6.93;;;3.90;;
5391;SDS011;2719;53.624;9.786;2023-03-01T14:55:20;7.37;;;3.80;;
5391;SDS011;2719;53.624;9.786;2023-03-01T14:57:51;6.40;;;4.20;;
5391;SDS011;2719;53.624;9.786;2023-03-01T15:00:19;7.57;;;4.40;;
5391;SDS011;2719;53.624;9.786;2023-03-01T15:02:49;12.40;;;4.53;;
5391;SDS011;2719;53.624;9.786;2023-03-01T15:05:18;8.10;;;4.00;;
5391;SDS011;2719;53.624;9.786;2023-03-01T15:07:49;7.13;;;4.33;;
5391;SDS011;2719;53.624;9.786;2023-03-01T15:10:19;10.80;;;5.07;;
5391;SDS011;2719;53.624;9.786;2023-03-01T15:12:48;8.83;;;4.40;;
5391;SDS011;2719;53.624;9.786;2023-03-01T15:18:05;7.63;;;5.10;;
5391;SDS011;2719;53.624;9.786;2023-03-01T15:20:42;8.30;;;4.33;;
5391;SDS011;2719;53.624;9.786;2023-03-01T15:23:18;9.90;;;4.90;;
5391;SDS011;2719;53.624;9.786;2023-03-01T15:25:49;11.47;;;5.17;;
5391;SDS011;2719;53.624;9.786;2023-03-01T15:28:22;9.33;;;4.70;;
5391;SDS011;2719;53.624;9.786;2023-03-01T15:30:55;11.30;;;5.90;;
5391;SDS011;2719;53.624;9.786;2023-03-01T15:33:32;15.43;;;7.40;;
5391;SDS011;2719;53.624;9.786;2023-03-01T15:36:02;13.20;;;6.43;;
5391;SDS011;2719;53.624;9.786;2023-03-01T15:38:52;12.73;;;5.30;;
5391;SDS011;2719;53.624;9.786;2023-03-01T15:41:23;13.43;;;5.90;;
5391;SDS011;2719;53.624;9.786;2023-03-01T15:43:51;19.00;;;8.03;;